Flight Track Log - Related Links

Times and Time Zones

All times are in EDT time to prevent confusion due to time zone crossing. See the SKW5550 flight status page for this flight to view local times or setup timezone preferences in your user account.

Time Position Orientation Groundspeed Altitude Reporting Facility
EDT Latitude Longitude Course Direction KTS MPH feet Rate Location/Type
Sun 08:18:00 AM 44.2290 -108.7272 144° Southeast  Level Estimated
Sun 08:19:00 AM 44.1318 -108.6290 144° Southeast  Level Estimated
Sun 08:20:00 AM 44.0345 -108.5311 144° Southeast  Level Estimated
Sun 08:21:00 AM 43.9371 -108.4335 144° Southeast  Level Estimated
Sun 08:22:00 AM 43.8397 -108.3363 144° Southeast  Level Estimated
Sun 08:23:00 AM 43.7421 -108.2394 144° Southeast  Level Estimated
Sun 08:24:00 AM 43.6445 -108.1428 144° Southeast  Level Estimated
Sun 08:24:12 AM 43.9256 -108.5778 145° Southeast 408 470 16,800  Level Salt Lake Center
Sun 08:25:00 AM 43.5468 -108.0465 144° Southeast  Level Estimated
Sun 08:25:13 AM 43.8025 -108.5061 157° South 428 493 17,800  Level Salt Lake Center
Sun 08:26:00 AM 43.4490 -107.9505 145° Southeast  Level Estimated
Sun 08:26:13 AM 43.7039 -108.4464 156° South 421 484 18,900  Level Salt Lake Center
Sun 08:27:00 AM 43.3511 -107.8548 145° Southeast  Level Estimated
Sun 08:27:13 AM 43.5828 -108.3731 156° South 424 488 20,300  Level Salt Lake Center
Sun 08:28:00 AM 43.2532 -107.7594 145° Southeast  Level Estimated
Sun 08:28:14 AM 43.4797 -108.3106 156° South 423 487 21,400  Level Salt Lake Center
Sun 08:29:00 AM 43.1551 -107.6644 145° Southeast  Level Estimated
Sun 08:29:14 AM 43.3881 -108.2203 144° Southeast 425 489 22,600  Level Salt Lake Center
Sun 08:30:15 AM 43.2819 -108.1089 143° Southeast 428 493 23,500 793 Climbing Salt Lake Center
Sun 08:31:15 AM 43.1892 -108.0114 143° Southeast 435 501 24,200 694 Climbing Salt Lake Center
Sun 08:32:16 AM 43.0950 -107.9117 142° Southeast 444 511 24,900 694 Climbing Salt Lake Center
Sun 08:33:16 AM 43.0006 -107.8119 142° Southeast 446 513 25,600 750 Climbing Salt Lake Center
Sun 08:34:16 AM 42.8892 -107.6950 142° Southeast 450 518 26,400 694 Climbing Salt Lake Center
Sun 08:35:17 AM 42.7933 -107.5958 143° Southeast 452 520 27,000 645 Climbing Salt Lake Center
Sun 08:36:17 AM 42.6975 -107.4953 142° Southeast 453 521 27,700 744 Climbing Salt Lake Center
Sun 08:37:18 AM 42.5853 -107.3797 143° Southeast 453 521 28,500 744 Climbing Salt Lake Center
Sun 08:38:18 AM 42.4894 -107.2811 143° Southeast 453 521 29,200 694 Climbing Salt Lake Center
Sun 08:39:19 AM 42.3922 -107.1814 143° Southeast 454 522 29,900 694 Climbing Salt Lake Center
Sun 08:40:19 AM 42.2808 -107.0678 143° Southeast 453 521 30,600 545 Climbing Salt Lake Center
Sun 08:41:20 AM 42.1864 -106.9708 143° Southeast 451 519 31,000 198 Climbing Salt Lake Center
Sun 08:42:20 AM 42.0869 -106.8692 143° Southeast 454 522 31,000  Level Salt Lake Center
Sun 08:43:21 AM 41.9875 -106.7644 142° Southeast 466 536 31,000  Level Salt Lake Center
Sun 08:44:21 AM 41.8686 -106.6439 143° Southeast 478 550 31,000  Level Salt Lake Center
Sun 08:45:22 AM 41.7650 -106.5344 142° Southeast 490 564 31,000  Level Salt Lake Center
Sun 08:46:22 AM 41.6597 -106.4258 142° Southeast 499 574 31,000  Level Salt Lake Center
Sun 08:47:40 AM 41.5025 -106.2614 142° Southeast 499 574 31,000  Level Denver Center
Sun 08:48:41 AM 41.3981 -106.1539 142° Southeast 498 573 31,000  Level Denver Center
Sun 08:49:41 AM 41.2939 -106.0481 143° Southeast 495 570 31,000  Level Denver Center
Sun 08:50:42 AM 41.1719 -105.9228 142° Southeast 497 572 31,000  Level Denver Center
Sun 08:51:43 AM 41.0667 -105.8169 143° Southeast 497 572 31,000 -492 Level Denver Center
Sun 08:52:44 AM 40.9536 -105.7008 142° Southeast 498 573 30,000 -1,525 Descending Denver Center
Sun 08:53:45 AM 40.8447 -105.5908 143° Southeast 494 568 27,900 -2,033 Descending Denver Center
Sun 08:54:45 AM 40.7369 -105.4844 143° Southeast 487 560 25,900 -2,182 Descending Denver Center
Sun 08:55:46 AM 40.6372 -105.3847 143° Southeast 457 526 23,500 -2,311 Descending Denver Center
Sun 08:56:47 AM 40.5439 -105.2900 142° Southeast 428 493 21,200 -1,770 Descending Denver Center
Sun 08:57:48 AM 40.4486 -105.2031 145° Southeast 387 445 19,900 -1,574 Descending Denver Center
Sun 08:58:49 AM 40.3647 -105.1356 148° Southeast 356 410 18,000 -1,785 Descending Denver Center
Sun 08:59:49 AM 40.2894 -105.0556 141° Southeast 348 400 16,300 -1,785 Descending Denver Center
Sun 09:00:50 AM 40.2186 -104.9764 140° Southeast 337 388 14,400 -1,574 Descending Denver Center
Sun 09:01:51 AM 40.1483 -104.9011 141° Southeast 327 376 13,100 -689 Descending Denver Center
Sun 09:02:52 AM 40.0831 -104.8300 140° Southeast 309 356 13,000 -149 Descending Denver Center
Sun 09:03:52 AM 40.0117 -104.7525 140° Southeast 309 356 12,800 -595 Descending Denver Center
Sun 09:04:53 AM 39.9803 -104.6717 117° Southeast 269 310 11,800 -885 Descending Denver Center
Sun 09:05:54 AM 39.9814 -104.5750 89° East 267 307 11,000 -738 Descending Denver Center
Sun 09:06:55 AM 39.9756 -104.4839 95° East 255 293 10,300 -843 Descending Denver Center
Sun 09:07:55 AM 39.9153 -104.4586 162° South 254 292 9,300 -1,000 Descending Denver Center

Login

Don't have an account? Register now (free) for customized features, flight alerts, and more!